sensor_id;sensor_type;location;lat;lon;timestamp;temperature;humidity
20246;DHT22;10281;54.406;18.556;2022-10-26T00:00:42;12.20;99.90
20246;DHT22;10281;54.406;18.556;2022-10-26T00:03:09;12.20;99.90
20246;DHT22;10281;54.406;18.556;2022-10-26T00:05:35;12.20;99.90
20246;DHT22;10281;54.406;18.556;2022-10-26T00:08:02;12.30;99.90
20246;DHT22;10281;54.406;18.556;2022-10-26T00:10:29;12.20;99.90
20246;DHT22;10281;54.406;18.556;2022-10-26T00:12:55;12.20;99.90
20246;DHT22;10281;54.406;18.556;2022-10-26T00:15:22;12.30;99.90
20246;DHT22;10281;54.406;18.556;2022-10-26T00:17:50;12.30;99.90
20246;DHT22;10281;54.406;18.556;2022-10-26T00:20:16;12.30;99.90
20246;DHT22;10281;54.406;18.556;2022-10-26T00:22:43;12.40;99.90
20246;DHT22;10281;54.406;18.556;2022-10-26T00:25:10;12.40;99.90
20246;DHT22;10281;54.406;18.556;2022-10-26T00:27:37;12.40;99.90
20246;DHT22;10281;54.406;18.556;2022-10-26T00:30:04;12.40;99.90
20246;DHT22;10281;54.406;18.556;2022-10-26T00:32:32;12.40;99.90
20246;DHT22;10281;54.406;18.556;2022-10-26T00:34:59;12.40;99.90
20246;DHT22;10281;54.406;18.556;2022-10-26T00:37:26;12.50;99.90
20246;DHT22;10281;54.406;18.556;2022-10-26T00:39:52;12.50;99.90
20246;DHT22;10281;54.406;18.556;2022-10-26T00:42:20;12.50;99.90
20246;DHT22;10281;54.406;18.556;2022-10-26T00:44:58;12.50;99.90
20246;DHT22;10281;54.406;18.556;2022-10-26T00:47:33;12.50;99.90
20246;DHT22;10281;54.406;18.556;2022-10-26T00:50:03;12.50;99.90
20246;DHT22;10281;54.406;18.556;2022-10-26T00:52:30;12.50;99.90
20246;DHT22;10281;54.406;18.556;2022-10-26T00:54:57;12.60;99.90
20246;DHT22;10281;54.406;18.556;2022-10-26T00:57:24;12.60;99.90
20246;DHT22;10281;54.406;18.556;2022-10-26T00:59:52;12.60;99.90
20246;DHT22;10281;54.406;18.556;2022-10-26T01:02:20;12.60;99.90
20246;DHT22;10281;54.406;18.556;2022-10-26T01:04:47;12.60;99.90
20246;DHT22;10281;54.406;18.556;2022-10-26T01:07:13;12.60;99.90
20246;DHT22;10281;54.406;18.556;2022-10-26T01:09:40;12.60;99.90
20246;DHT22;10281;54.406;18.556;2022-10-26T01:12:07;12.60;99.90
20246;DHT22;10281;54.406;18.556;2022-10-26T01:14:34;12.60;99.90
20246;DHT22;10281;54.406;18.556;2022-10-26T01:17:11;12.70;99.90
20246;DHT22;10281;54.406;18.556;2022-10-26T01:22:24;12.70;99.90
20246;DHT22;10281;54.406;18.556;2022-10-26T01:25:15;12.70;99.90
20246;DHT22;10281;54.406;18.556;2022-10-26T01:27:48;12.70;99.90
20246;DHT22;10281;54.406;18.556;2022-10-26T01:30:20;12.70;99.90
20246;DHT22;10281;54.406;18.556;2022-10-26T01:32:58;12.80;99.90
20246;DHT22;10281;54.406;18.556;2022-10-26T01:36:00;12.80;99.90
20246;DHT22;10281;54.406;18.556;2022-10-26T01:38:15;12.80;99.90
20246;DHT22;10281;54.406;18.556;2022-10-26T01:40:48;12.80;99.90
20246;DHT22;10281;54.406;18.556;2022-10-26T01:43:15;12.70;99.90
20246;DHT22;10281;54.406;18.556;2022-10-26T01:45:45;12.70;99.90
20246;DHT22;10281;54.406;18.556;2022-10-26T01:48:15;12.70;99.90
20246;DHT22;10281;54.406;18.556;2022-10-26T01:50:44;12.70;99.90
20246;DHT22;10281;54.406;18.556;2022-10-26T01:53:14;12.70;99.90
20246;DHT22;10281;54.406;18.556;2022-10-26T01:55:49;12.60;99.90
20246;DHT22;10281;54.406;18.556;2022-10-26T01:58:39;12.60;99.90
20246;DHT22;10281;54.406;18.556;2022-10-26T02:01:28;12.60;99.90
20246;DHT22;10281;54.406;18.556;2022-10-26T02:04:04;12.50;99.90
20246;DHT22;10281;54.406;18.556;2022-10-26T02:06:35;12.50;99.90
20246;DHT22;10281;54.406;18.556;2022-10-26T02:09:18;12.50;99.90
20246;DHT22;10281;54.406;18.556;2022-10-26T02:11:44;12.40;99.90
20246;DHT22;10281;54.406;18.556;2022-10-26T02:14:21;12.40;99.90
20246;DHT22;10281;54.406;18.556;2022-10-26T02:16:52;12.40;99.90
20246;DHT22;10281;54.406;18.556;2022-10-26T02:19:59;12.40;99.90
20246;DHT22;10281;54.406;18.556;2022-10-26T02:22:23;12.40;99.90
20246;DHT22;10281;54.406;18.556;2022-10-26T02:24:52;12.40;99.90
20246;DHT22;10281;54.406;18.556;2022-10-26T02:27:25;12.40;99.90
20246;DHT22;10281;54.406;18.556;2022-10-26T02:29:54;12.40;99.90
20246;DHT22;10281;54.406;18.556;2022-10-26T02:32:22;12.40;99.90
20246;DHT22;10281;54.406;18.556;2022-10-26T02:34:51;12.40;99.90
20246;DHT22;10281;54.406;18.556;2022-10-26T02:37:20;12.40;99.90
20246;DHT22;10281;54.406;18.556;2022-10-26T02:39:49;12.40;99.90
20246;DHT22;10281;54.406;18.556;2022-10-26T02:42:17;12.40;99.90
20246;DHT22;10281;54.406;18.556;2022-10-26T02:44:49;12.40;99.90
20246;DHT22;10281;54.406;18.556;2022-10-26T02:47:17;12.50;99.90
20246;DHT22;10281;54.406;18.556;2022-10-26T02:49:45;12.50;99.90
20246;DHT22;10281;54.406;18.556;2022-10-26T02:52:34;12.50;99.90
20246;DHT22;10281;54.406;18.556;2022-10-26T02:55:05;12.50;99.90
20246;DHT22;10281;54.406;18.556;2022-10-26T02:57:35;12.50;99.90
20246;DHT22;10281;54.406;18.556;2022-10-26T03:00:07;12.50;99.90
20246;DHT22;10281;54.406;18.556;2022-10-26T03:02:34;12.50;99.90
20246;DHT22;10281;54.406;18.556;2022-10-26T03:05:10;12.60;99.90
20246;DHT22;10281;54.406;18.556;2022-10-26T03:07:37;12.60;99.90
20246;DHT22;10281;54.406;18.556;2022-10-26T03:10:04;12.60;99.90
20246;DHT22;10281;54.406;18.556;2022-10-26T03:12:31;12.60;99.90
20246;DHT22;10281;54.406;18.556;2022-10-26T03:14:57;12.60;99.90
20246;DHT22;10281;54.406;18.556;2022-10-26T03:17:24;12.70;99.90
20246;DHT22;10281;54.406;18.556;2022-10-26T03:19:50;12.60;99.90
20246;DHT22;10281;54.406;18.556;2022-10-26T03:22:17;12.60;99.90
20246;DHT22;10281;54.406;18.556;2022-10-26T03:24:44;12.60;99.90
20246;DHT22;10281;54.406;18.556;2022-10-26T03:27:10;12.60;99.90
20246;DHT22;10281;54.406;18.556;2022-10-26T03:29:37;12.60;99.90
20246;DHT22;10281;54.406;18.556;2022-10-26T03:32:04;12.60;99.90
20246;DHT22;10281;54.406;18.556;2022-10-26T03:34:30;12.60;99.90
20246;DHT22;10281;54.406;18.556;2022-10-26T03:36:57;12.60;99.90
20246;DHT22;10281;54.406;18.556;2022-10-26T03:39:24;12.60;99.90
20246;DHT22;10281;54.406;18.556;2022-10-26T03:41:51;12.50;99.90
20246;DHT22;10281;54.406;18.556;2022-10-26T03:44:17;12.60;99.90
20246;DHT22;10281;54.406;18.556;2022-10-26T03:46:44;12.50;99.90
20246;DHT22;10281;54.406;18.556;2022-10-26T03:49:10;12.50;99.90
20246;DHT22;10281;54.406;18.556;2022-10-26T03:51:37;12.50;99.90
20246;DHT22;10281;54.406;18.556;2022-10-26T03:54:04;12.40;99.90
20246;DHT22;10281;54.406;18.556;2022-10-26T03:56:31;12.50;99.90
20246;DHT22;10281;54.406;18.556;2022-10-26T03:58:57;12.50;99.90
20246;DHT22;10281;54.406;18.556;2022-10-26T04:01:24;12.50;99.90
20246;DHT22;10281;54.406;18.556;2022-10-26T04:03:50;12.50;99.90
20246;DHT22;10281;54.406;18.556;2022-10-26T04:06:17;12.50;99.90
20246;DHT22;10281;54.406;18.556;2022-10-26T04:08:44;12.50;99.90
20246;DHT22;10281;54.406;18.556;2022-10-26T04:11:10;12.50;99.90
20246;DHT22;10281;54.406;18.556;2022-10-26T04:13:37;12.50;99.90
20246;DHT22;10281;54.406;18.556;2022-10-26T04:16:04;12.50;99.90
20246;DHT22;10281;54.406;18.556;2022-10-26T04:18:31;12.50;99.90
20246;DHT22;10281;54.406;18.556;2022-10-26T04:21:01;12.50;99.90
20246;DHT22;10281;54.406;18.556;2022-10-26T04:23:27;12.50;99.90
20246;DHT22;10281;54.406;18.556;2022-10-26T04:25:54;12.40;99.90
20246;DHT22;10281;54.406;18.556;2022-10-26T04:28:21;12.50;99.90
20246;DHT22;10281;54.406;18.556;2022-10-26T04:30:47;12.50;99.90
20246;DHT22;10281;54.406;18.556;2022-10-26T04:33:14;12.50;99.90
20246;DHT22;10281;54.406;18.556;2022-10-26T04:35:40;12.50;99.90
20246;DHT22;10281;54.406;18.556;2022-10-26T04:38:09;12.50;99.90
20246;DHT22;10281;54.406;18.556;2022-10-26T04:40:36;12.50;99.90
20246;DHT22;10281;54.406;18.556;2022-10-26T04:43:03;12.50;99.90
20246;DHT22;10281;54.406;18.556;2022-10-26T04:45:29;12.50;99.90
20246;DHT22;10281;54.406;18.556;2022-10-26T04:48:04;12.60;99.90
20246;DHT22;10281;54.406;18.556;2022-10-26T04:50:32;12.50;99.90
20246;DHT22;10281;54.406;18.556;2022-10-26T04:52:58;12.50;99.90
20246;DHT22;10281;54.406;18.556;2022-10-26T04:55:25;12.40;99.90
20246;DHT22;10281;54.406;18.556;2022-10-26T04:57:52;12.40;99.90
20246;DHT22;10281;54.406;18.556;2022-10-26T05:00:19;12.40;99.90
20246;DHT22;10281;54.406;18.556;2022-10-26T05:02:45;12.30;99.90
20246;DHT22;10281;54.406;18.556;2022-10-26T05:05:12;12.20;99.90
20246;DHT22;10281;54.406;18.556;2022-10-26T05:07:39;12.20;99.90
20246;DHT22;10281;54.406;18.556;2022-10-26T05:10:05;12.10;99.90
20246;DHT22;10281;54.406;18.556;2022-10-26T05:12:32;12.10;99.90
20246;DHT22;10281;54.406;18.556;2022-10-26T05:14:59;12.10;99.90
20246;DHT22;10281;54.406;18.556;2022-10-26T05:17:26;12.00;99.90
20246;DHT22;10281;54.406;18.556;2022-10-26T05:19:53;12.00;99.90
20246;DHT22;10281;54.406;18.556;2022-10-26T05:22:23;11.90;99.90
20246;DHT22;10281;54.406;18.556;2022-10-26T05:24:50;11.90;99.90
20246;DHT22;10281;54.406;18.556;2022-10-26T05:27:17;11.90;99.90
20246;DHT22;10281;54.406;18.556;2022-10-26T05:29:44;11.80;99.90
20246;DHT22;10281;54.406;18.556;2022-10-26T05:32:10;11.80;99.90
20246;DHT22;10281;54.406;18.556;2022-10-26T05:34:37;11.80;99.90
20246;DHT22;10281;54.406;18.556;2022-10-26T05:37:03;11.80;99.90
20246;DHT22;10281;54.406;18.556;2022-10-26T05:39:30;11.80;99.90
20246;DHT22;10281;54.406;18.556;2022-10-26T05:41:57;11.80;99.90
20246;DHT22;10281;54.406;18.556;2022-10-26T05:44:23;11.80;99.90
20246;DHT22;10281;54.406;18.556;2022-10-26T05:46:50;11.80;99.90
20246;DHT22;10281;54.406;18.556;2022-10-26T05:49:16;11.80;99.90
20246;DHT22;10281;54.406;18.556;2022-10-26T05:51:43;11.80;99.90
20246;DHT22;10281;54.406;18.556;2022-10-26T05:54:09;11.80;99.90
20246;DHT22;10281;54.406;18.556;2022-10-26T05:56:38;11.80;99.90
20246;DHT22;10281;54.406;18.556;2022-10-26T05:59:14;11.80;99.90
20246;DHT22;10281;54.406;18.556;2022-10-26T06:02:03;11.80;99.90
20246;DHT22;10281;54.406;18.556;2022-10-26T06:04:42;11.70;99.90
20246;DHT22;10281;54.406;18.556;2022-10-26T06:07:13;11.70;99.90
20246;DHT22;10281;54.406;18.556;2022-10-26T06:09:40;11.70;99.90
20246;DHT22;10281;54.406;18.556;2022-10-26T06:12:08;11.70;99.90
20246;DHT22;10281;54.406;18.556;2022-10-26T06:14:35;11.70;99.90
20246;DHT22;10281;54.406;18.556;2022-10-26T06:17:30;11.70;99.90
20246;DHT22;10281;54.406;18.556;2022-10-26T06:22:52;11.70;99.90
20246;DHT22;10281;54.406;18.556;2022-10-26T06:25:27;11.70;99.90
20246;DHT22;10281;54.406;18.556;2022-10-26T06:28:16;11.70;99.90
20246;DHT22;10281;54.406;18.556;2022-10-26T06:30:41;11.70;99.90
20246;DHT22;10281;54.406;18.556;2022-10-26T06:33:10;11.70;99.90
20246;DHT22;10281;54.406;18.556;2022-10-26T06:35:45;11.70;99.90
20246;DHT22;10281;54.406;18.556;2022-10-26T06:38:20;11.70;99.90
20246;DHT22;10281;54.406;18.556;2022-10-26T06:40:50;11.70;99.90
20246;DHT22;10281;54.406;18.556;2022-10-26T06:43:24;11.70;99.90
20246;DHT22;10281;54.406;18.556;2022-10-26T06:46:15;11.80;99.90
20246;DHT22;10281;54.406;18.556;2022-10-26T06:48:49;11.80;99.90
20246;DHT22;10281;54.406;18.556;2022-10-26T06:51:17;11.80;99.90
20246;DHT22;10281;54.406;18.556;2022-10-26T06:54:04;11.80;99.90
20246;DHT22;10281;54.406;18.556;2022-10-26T06:56:30;11.80;99.90
20246;DHT22;10281;54.406;18.556;2022-10-26T06:59:01;11.80;99.90
20246;DHT22;10281;54.406;18.556;2022-10-26T07:01:28;11.90;99.90
20246;DHT22;10281;54.406;18.556;2022-10-26T07:03:55;11.90;99.90
20246;DHT22;10281;54.406;18.556;2022-10-26T07:06:22;11.90;99.90
20246;DHT22;10281;54.406;18.556;2022-10-26T07:08:49;11.90;99.90
20246;DHT22;10281;54.406;18.556;2022-10-26T07:11:15;11.90;99.90
20246;DHT22;10281;54.406;18.556;2022-10-26T07:13:42;12.00;99.90
20246;DHT22;10281;54.406;18.556;2022-10-26T07:16:09;12.00;99.90
20246;DHT22;10281;54.406;18.556;2022-10-26T07:18:36;12.00;99.90
20246;DHT22;10281;54.406;18.556;2022-10-26T07:21:02;12.00;99.90
20246;DHT22;10281;54.406;18.556;2022-10-26T07:23:29;12.00;99.90
20246;DHT22;10281;54.406;18.556;2022-10-26T07:25:58;12.00;99.90
20246;DHT22;10281;54.406;18.556;2022-10-26T07:28:25;12.10;99.90
20246;DHT22;10281;54.406;18.556;2022-10-26T07:30:51;12.10;99.90
20246;DHT22;10281;54.406;18.556;2022-10-26T07:33:18;12.10;99.90
20246;DHT22;10281;54.406;18.556;2022-10-26T07:35:45;12.20;99.90
20246;DHT22;10281;54.406;18.556;2022-10-26T07:38:12;12.20;99.90
20246;DHT22;10281;54.406;18.556;2022-10-26T07:40:39;12.20;99.90
20246;DHT22;10281;54.406;18.556;2022-10-26T07:43:05;12.30;99.90
20246;DHT22;10281;54.406;18.556;2022-10-26T07:45:32;12.30;99.90
20246;DHT22;10281;54.406;18.556;2022-10-26T07:47:59;12.40;99.90
20246;DHT22;10281;54.406;18.556;2022-10-26T07:50:25;12.40;99.90
20246;DHT22;10281;54.406;18.556;2022-10-26T07:52:52;12.50;99.90
20246;DHT22;10281;54.406;18.556;2022-10-26T07:55:19;12.50;99.90
20246;DHT22;10281;54.406;18.556;2022-10-26T07:57:46;12.50;99.90
20246;DHT22;10281;54.406;18.556;2022-10-26T08:00:13;12.50;99.90
20246;DHT22;10281;54.406;18.556;2022-10-26T08:02:40;12.60;99.90
20246;DHT22;10281;54.406;18.556;2022-10-26T08:05:07;12.60;99.90
20246;DHT22;10281;54.406;18.556;2022-10-26T08:07:39;12.60;99.90
20246;DHT22;10281;54.406;18.556;2022-10-26T08:10:06;12.70;99.90
20246;DHT22;10281;54.406;18.556;2022-10-26T08:12:33;12.80;99.90
20246;DHT22;10281;54.406;18.556;2022-10-26T08:15:00;12.80;99.90
20246;DHT22;10281;54.406;18.556;2022-10-26T08:17:28;12.90;99.90
20246;DHT22;10281;54.406;18.556;2022-10-26T08:19:54;13.00;99.90
20246;DHT22;10281;54.406;18.556;2022-10-26T08:22:21;13.10;99.90
20246;DHT22;10281;54.406;18.556;2022-10-26T08:24:47;13.20;99.90
20246;DHT22;10281;54.406;18.556;2022-10-26T08:27:14;13.30;99.90
20246;DHT22;10281;54.406;18.556;2022-10-26T08:29:41;13.40;99.90
20246;DHT22;10281;54.406;18.556;2022-10-26T08:32:08;13.50;99.90
20246;DHT22;10281;54.406;18.556;2022-10-26T08:34:35;13.70;99.90
20246;DHT22;10281;54.406;18.556;2022-10-26T08:37:02;13.80;99.90
20246;DHT22;10281;54.406;18.556;2022-10-26T08:39:28;13.90;99.90
20246;DHT22;10281;54.406;18.556;2022-10-26T08:42:01;14.00;99.90
20246;DHT22;10281;54.406;18.556;2022-10-26T08:44:35;14.00;99.90
20246;DHT22;10281;54.406;18.556;2022-10-26T08:47:10;14.00;99.90
20246;DHT22;10281;54.406;18.556;2022-10-26T08:49:50;14.00;99.90
20246;DHT22;10281;54.406;18.556;2022-10-26T08:52:20;14.10;99.90
20246;DHT22;10281;54.406;18.556;2022-10-26T08:54:51;14.10;99.90
20246;DHT22;10281;54.406;18.556;2022-10-26T08:57:36;14.10;99.90
20246;DHT22;10281;54.406;18.556;2022-10-26T09:00:10;14.10;99.90
20246;DHT22;10281;54.406;18.556;2022-10-26T09:02:37;14.10;99.90
20246;DHT22;10281;54.406;18.556;2022-10-26T09:05:13;14.20;99.90
20246;DHT22;10281;54.406;18.556;2022-10-26T09:07:51;14.30;99.90
20246;DHT22;10281;54.406;18.556;2022-10-26T09:10:39;14.30;99.90
20246;DHT22;10281;54.406;18.556;2022-10-26T09:16:29;14.40;99.90
20246;DHT22;10281;54.406;18.556;2022-10-26T09:19:13;14.40;99.90
20246;DHT22;10281;54.406;18.556;2022-10-26T09:21:45;14.50;99.90
20246;DHT22;10281;54.406;18.556;2022-10-26T09:24:21;14.40;99.90
20246;DHT22;10281;54.406;18.556;2022-10-26T09:26:53;14.40;99.90
20246;DHT22;10281;54.406;18.556;2022-10-26T09:29:24;14.40;99.90
20246;DHT22;10281;54.406;18.556;2022-10-26T09:31:51;14.40;99.90
20246;DHT22;10281;54.406;18.556;2022-10-26T09:34:24;14.50;99.90
20246;DHT22;10281;54.406;18.556;2022-10-26T09:36:53;14.50;99.90
20246;DHT22;10281;54.406;18.556;2022-10-26T09:39:29;14.60;99.90
20246;DHT22;10281;54.406;18.556;2022-10-26T09:42:00;14.60;99.90
20246;DHT22;10281;54.406;18.556;2022-10-26T09:44:35;14.60;99.90
20246;DHT22;10281;54.406;18.556;2022-10-26T09:47:08;14.70;99.90
20246;DHT22;10281;54.406;18.556;2022-10-26T09:49:40;14.80;99.90
20246;DHT22;10281;54.406;18.556;2022-10-26T09:52:07;14.80;99.90
20246;DHT22;10281;54.406;18.556;2022-10-26T09:54:34;14.80;99.90
20246;DHT22;10281;54.406;18.556;2022-10-26T09:57:01;14.80;99.90
20246;DHT22;10281;54.406;18.556;2022-10-26T09:59:29;14.90;99.90
20246;DHT22;10281;54.406;18.556;2022-10-26T10:01:58;14.80;99.90
20246;DHT22;10281;54.406;18.556;2022-10-26T10:04:25;14.80;99.90
20246;DHT22;10281;54.406;18.556;2022-10-26T10:07:10;14.70;99.90
20246;DHT22;10281;54.406;18.556;2022-10-26T10:09:29;14.70;99.90
20246;DHT22;10281;54.406;18.556;2022-10-26T10:11:58;14.70;99.90
20246;DHT22;10281;54.406;18.556;2022-10-26T10:14:29;14.80;99.90
20246;DHT22;10281;54.406;18.556;2022-10-26T10:16:59;14.80;99.90
20246;DHT22;10281;54.406;18.556;2022-10-26T10:19:32;14.80;99.90
20246;DHT22;10281;54.406;18.556;2022-10-26T10:22:00;14.90;99.90
20246;DHT22;10281;54.406;18.556;2022-10-26T10:27:07;15.00;99.90
20246;DHT22;10281;54.406;18.556;2022-10-26T10:32:03;15.10;99.90
20246;DHT22;10281;54.406;18.556;2022-10-26T10:34:31;15.20;99.90
20246;DHT22;10281;54.406;18.556;2022-10-26T10:36:59;15.20;99.90
20246;DHT22;10281;54.406;18.556;2022-10-26T10:39:34;15.20;99.90
20246;DHT22;10281;54.406;18.556;2022-10-26T10:42:02;15.10;99.90
20246;DHT22;10281;54.406;18.556;2022-10-26T10:44:31;15.10;99.90
20246;DHT22;10281;54.406;18.556;2022-10-26T10:47:05;15.10;99.90
20246;DHT22;10281;54.406;18.556;2022-10-26T10:49:35;15.10;99.90
20246;DHT22;10281;54.406;18.556;2022-10-26T10:52:08;15.10;99.90
20246;DHT22;10281;54.406;18.556;2022-10-26T10:54:43;15.10;99.90
20246;DHT22;10281;54.406;18.556;2022-10-26T10:57:23;15.20;99.90
20246;DHT22;10281;54.406;18.556;2022-10-26T10:59:57;15.30;99.90
20246;DHT22;10281;54.406;18.556;2022-10-26T11:03:03;15.40;99.90
20246;DHT22;10281;54.406;18.556;2022-10-26T11:05:37;15.40;99.90
20246;DHT22;10281;54.406;18.556;2022-10-26T11:08:08;15.40;99.90
20246;DHT22;10281;54.406;18.556;2022-10-26T11:10:39;15.40;99.90
20246;DHT22;10281;54.406;18.556;2022-10-26T11:13:26;15.40;99.90
20246;DHT22;10281;54.406;18.556;2022-10-26T11:16:00;15.40;99.90
20246;DHT22;10281;54.406;18.556;2022-10-26T11:18:38;15.40;99.90
20246;DHT22;10281;54.406;18.556;2022-10-26T11:21:13;15.40;99.90
20246;DHT22;10281;54.406;18.556;2022-10-26T11:23:41;15.50;99.90
20246;DHT22;10281;54.406;18.556;2022-10-26T11:26:16;15.50;99.90
20246;DHT22;10281;54.406;18.556;2022-10-26T11:28:49;15.50;99.90
20246;DHT22;10281;54.406;18.556;2022-10-26T11:31:20;15.60;99.90
20246;DHT22;10281;54.406;18.556;2022-10-26T11:34:12;15.50;99.90
20246;DHT22;10281;54.406;18.556;2022-10-26T11:36:39;15.50;99.90
20246;DHT22;10281;54.406;18.556;2022-10-26T11:39:18;15.40;99.90
20246;DHT22;10281;54.406;18.556;2022-10-26T11:41:48;15.40;99.90
20246;DHT22;10281;54.406;18.556;2022-10-26T11:44:34;15.30;99.90
20246;DHT22;10281;54.406;18.556;2022-10-26T11:47:06;15.30;99.90
20246;DHT22;10281;54.406;18.556;2022-10-26T11:50:03;15.30;99.90
20246;DHT22;10281;54.406;18.556;2022-10-26T11:52:37;15.30;99.90
20246;DHT22;10281;54.406;18.556;2022-10-26T11:55:03;15.30;99.90
20246;DHT22;10281;54.406;18.556;2022-10-26T11:57:32;15.30;99.90
20246;DHT22;10281;54.406;18.556;2022-10-26T12:00:17;15.30;99.90
20246;DHT22;10281;54.406;18.556;2022-10-26T12:02:55;15.30;99.90
20246;DHT22;10281;54.406;18.556;2022-10-26T12:05:32;15.30;99.90
20246;DHT22;10281;54.406;18.556;2022-10-26T12:08:04;15.30;99.90
20246;DHT22;10281;54.406;18.556;2022-10-26T12:10:38;15.30;99.90
20246;DHT22;10281;54.406;18.556;2022-10-26T12:13:15;15.30;99.90
20246;DHT22;10281;54.406;18.556;2022-10-26T12:15:48;15.30;99.90
20246;DHT22;10281;54.406;18.556;2022-10-26T12:18:22;15.30;99.90
20246;DHT22;10281;54.406;18.556;2022-10-26T12:20:53;15.40;99.90
20246;DHT22;10281;54.406;18.556;2022-10-26T12:23:22;15.20;99.90
20246;DHT22;10281;54.406;18.556;2022-10-26T12:25:49;15.20;99.90
20246;DHT22;10281;54.406;18.556;2022-10-26T12:31:16;15.20;99.90
20246;DHT22;10281;54.406;18.556;2022-10-26T12:33:28;15.20;99.90
20246;DHT22;10281;54.406;18.556;2022-10-26T12:35:55;15.30;99.90
20246;DHT22;10281;54.406;18.556;2022-10-26T12:41:19;15.10;99.90
20246;DHT22;10281;54.406;18.556;2022-10-26T12:43:46;15.10;99.90
20246;DHT22;10281;54.406;18.556;2022-10-26T12:46:37;15.10;99.90
20246;DHT22;10281;54.406;18.556;2022-10-26T12:49:07;15.00;99.90
20246;DHT22;10281;54.406;18.556;2022-10-26T12:51:40;15.10;99.90
20246;DHT22;10281;54.406;18.556;2022-10-26T12:54:19;15.20;99.90
20246;DHT22;10281;54.406;18.556;2022-10-26T12:56:50;15.20;99.90
20246;DHT22;10281;54.406;18.556;2022-10-26T12:59:25;15.20;99.90
20246;DHT22;10281;54.406;18.556;2022-10-26T13:07:23;15.10;99.90
20246;DHT22;10281;54.406;18.556;2022-10-26T13:10:04;15.00;99.90
20246;DHT22;10281;54.406;18.556;2022-10-26T13:12:46;14.90;99.90
20246;DHT22;10281;54.406;18.556;2022-10-26T13:15:25;14.90;99.90
20246;DHT22;10281;54.406;18.556;2022-10-26T13:18:05;14.80;99.90
20246;DHT22;10281;54.406;18.556;2022-10-26T13:20:36;14.70;99.90
20246;DHT22;10281;54.406;18.556;2022-10-26T13:23:14;14.70;99.90
20246;DHT22;10281;54.406;18.556;2022-10-26T13:25:41;14.60;99.90
20246;DHT22;10281;54.406;18.556;2022-10-26T13:28:30;14.50;99.90
20246;DHT22;10281;54.406;18.556;2022-10-26T13:30:57;14.50;99.90
20246;DHT22;10281;54.406;18.556;2022-10-26T13:33:34;14.50;99.90
20246;DHT22;10281;54.406;18.556;2022-10-26T13:36:10;14.40;99.90
20246;DHT22;10281;54.406;18.556;2022-10-26T13:38:35;14.50;99.90
20246;DHT22;10281;54.406;18.556;2022-10-26T13:41:09;14.40;99.90
20246;DHT22;10281;54.406;18.556;2022-10-26T13:43:35;14.40;99.90
20246;DHT22;10281;54.406;18.556;2022-10-26T13:46:05;14.50;99.90
20246;DHT22;10281;54.406;18.556;2022-10-26T13:48:37;14.50;99.90
20246;DHT22;10281;54.406;18.556;2022-10-26T13:51:17;14.50;99.90
20246;DHT22;10281;54.406;18.556;2022-10-26T13:53:50;14.40;99.90
20246;DHT22;10281;54.406;18.556;2022-10-26T13:56:24;14.40;99.90
20246;DHT22;10281;54.406;18.556;2022-10-26T13:59:02;14.40;99.90
20246;DHT22;10281;54.406;18.556;2022-10-26T14:01:31;14.40;99.90
20246;DHT22;10281;54.406;18.556;2022-10-26T14:03:58;14.40;99.90
20246;DHT22;10281;54.406;18.556;2022-10-26T14:06:31;14.40;99.90
20246;DHT22;10281;54.406;18.556;2022-10-26T14:09:02;14.50;99.90
20246;DHT22;10281;54.406;18.556;2022-10-26T14:11:41;14.50;99.90
20246;DHT22;10281;54.406;18.556;2022-10-26T14:14:03;14.50;99.90
20246;DHT22;10281;54.406;18.556;2022-10-26T14:16:32;14.60;99.90
20246;DHT22;10281;54.406;18.556;2022-10-26T14:18:59;14.60;99.90
20246;DHT22;10281;54.406;18.556;2022-10-26T14:21:26;14.70;99.90
20246;DHT22;10281;54.406;18.556;2022-10-26T14:23:56;14.70;99.90
20246;DHT22;10281;54.406;18.556;2022-10-26T14:26:37;14.70;99.90
20246;DHT22;10281;54.406;18.556;2022-10-26T14:29:00;14.70;99.90
20246;DHT22;10281;54.406;18.556;2022-10-26T14:31:31;14.70;99.90
20246;DHT22;10281;54.406;18.556;2022-10-26T14:33:59;14.70;99.90
20246;DHT22;10281;54.406;18.556;2022-10-26T14:36:31;14.70;99.90
20246;DHT22;10281;54.406;18.556;2022-10-26T14:39:03;14.70;99.90
20246;DHT22;10281;54.406;18.556;2022-10-26T14:41:33;14.70;99.90
20246;DHT22;10281;54.406;18.556;2022-10-26T14:44:01;14.70;99.90
20246;DHT22;10281;54.406;18.556;2022-10-26T14:46:31;14.70;99.90
20246;DHT22;10281;54.406;18.556;2022-10-26T14:49:00;14.60;99.90
20246;DHT22;10281;54.406;18.556;2022-10-26T14:51:29;14.60;99.90
20246;DHT22;10281;54.406;18.556;2022-10-26T14:53:57;14.60;99.90
20246;DHT22;10281;54.406;18.556;2022-10-26T14:56:30;14.60;99.90
20246;DHT22;10281;54.406;18.556;2022-10-26T14:58:58;14.60;99.90
20246;DHT22;10281;54.406;18.556;2022-10-26T15:01:27;14.60;99.90
20246;DHT22;10281;54.406;18.556;2022-10-26T15:03:56;14.50;99.90
20246;DHT22;10281;54.406;18.556;2022-10-26T15:06:35;14.60;99.90
20246;DHT22;10281;54.406;18.556;2022-10-26T15:09:03;14.60;99.90
20246;DHT22;10281;54.406;18.556;2022-10-26T15:11:33;14.50;99.90
20246;DHT22;10281;54.406;18.556;2022-10-26T15:14:00;14.50;99.90
20246;DHT22;10281;54.406;18.556;2022-10-26T15:16:30;14.50;99.90
20246;DHT22;10281;54.406;18.556;2022-10-26T15:19:05;14.50;99.90
20246;DHT22;10281;54.406;18.556;2022-10-26T15:21:35;14.50;99.90
20246;DHT22;10281;54.406;18.556;2022-10-26T15:24:24;14.50;99.90
20246;DHT22;10281;54.406;18.556;2022-10-26T15:26:50;14.40;99.90
20246;DHT22;10281;54.406;18.556;2022-10-26T15:32:00;14.50;99.90
20246;DHT22;10281;54.406;18.556;2022-10-26T15:34:26;14.40;99.90
20246;DHT22;10281;54.406;18.556;2022-10-26T15:36:53;14.30;99.90
20246;DHT22;10281;54.406;18.556;2022-10-26T15:39:20;14.40;99.90
20246;DHT22;10281;54.406;18.556;2022-10-26T15:41:47;14.30;99.90
20246;DHT22;10281;54.406;18.556;2022-10-26T15:44:19;14.30;99.90
20246;DHT22;10281;54.406;18.556;2022-10-26T15:46:46;14.20;99.90
20246;DHT22;10281;54.406;18.556;2022-10-26T15:49:16;14.10;99.90
20246;DHT22;10281;54.406;18.556;2022-10-26T15:51:45;14.10;99.90
20246;DHT22;10281;54.406;18.556;2022-10-26T15:54:13;14.00;99.90
20246;DHT22;10281;54.406;18.556;2022-10-26T15:56:40;13.90;99.90
20246;DHT22;10281;54.406;18.556;2022-10-26T15:59:17;13.90;99.90
20246;DHT22;10281;54.406;18.556;2022-10-26T16:01:44;13.80;99.90
20246;DHT22;10281;54.406;18.556;2022-10-26T16:04:11;13.70;99.90